createdAt,value
2022-12-01T00:01:38.037Z,3.95
2022-12-01T00:05:10.152Z,3.35
2022-12-01T00:08:40.860Z,3.42
2022-12-01T00:12:01.914Z,3.28
2022-12-01T00:15:16.844Z,3.00
2022-12-01T00:18:36.218Z,3.45
2022-12-01T00:22:11.451Z,2.62
2022-12-01T00:25:41.805Z,3.05
2022-12-01T00:29:08.959Z,4.15
2022-12-01T00:32:26.716Z,3.35
2022-12-01T00:35:31.027Z,3.20
2022-12-01T00:38:52.351Z,2.95
2022-12-01T00:42:13.371Z,3.67
2022-12-01T00:45:45.423Z,2.95
2022-12-01T00:49:16.501Z,2.90
2022-12-01T00:52:33.668Z,2.85
2022-12-01T00:55:59.586Z,2.65
2022-12-01T00:59:19.206Z,3.53
2022-12-01T01:02:23.146Z,2.70
2022-12-01T01:05:28.350Z,2.70
2022-12-01T01:08:51.242Z,3.45
2022-12-01T01:12:25.673Z,2.75
2022-12-01T01:15:43.046Z,2.55
2022-12-01T01:19:14.074Z,2.20
2022-12-01T01:22:32.911Z,3.50
2022-12-01T01:25:52.213Z,3.12
2022-12-01T01:29:34.750Z,2.78
2022-12-01T01:32:54.012Z,3.35
2022-12-01T01:36:12.165Z,2.85
2022-12-01T01:39:33.600Z,2.35
2022-12-01T01:43:38.490Z,2.67
2022-12-01T01:47:29.402Z,3.00
2022-12-01T01:51:02.087Z,2.42
2022-12-01T01:54:41.410Z,3.92
2022-12-01T01:58:00.736Z,2.62
2022-12-01T02:01:34.676Z,2.42
2022-12-01T02:08:26.012Z,3.03
2022-12-01T02:11:57.469Z,3.05
2022-12-01T02:15:34.448Z,2.95
2022-12-01T02:19:22.829Z,2.30
2022-12-01T02:22:53.359Z,3.55
2022-12-01T02:26:42.011Z,3.72
2022-12-01T02:30:21.788Z,2.08
2022-12-01T02:34:45.952Z,2.60
2022-12-01T02:38:39.054Z,3.05
2022-12-01T02:42:54.392Z,2.37
2022-12-01T02:46:38.926Z,2.72
2022-12-01T02:50:03.696Z,2.22
2022-12-01T02:53:44.526Z,2.40
2022-12-01T02:56:47.462Z,3.42
2022-12-01T03:00:21.892Z,3.60
2022-12-01T03:04:17.414Z,2.75
2022-12-01T03:08:34.483Z,2.80
2022-12-01T03:12:14.489Z,1.87
2022-12-01T03:15:53.397Z,2.95
2022-12-01T03:19:38.506Z,3.58
2022-12-01T03:23:22.583Z,2.87
2022-12-01T03:26:47.498Z,2.40
2022-12-01T03:30:21.934Z,2.72
2022-12-01T03:34:04.103Z,2.83
2022-12-01T03:45:16.244Z,3.17
2022-12-01T03:49:11.209Z,2.00
2022-12-01T03:52:36.383Z,2.72
2022-12-01T03:56:17.521Z,2.40
2022-12-01T03:59:49.397Z,3.15
2022-12-01T04:03:18.895Z,2.30
2022-12-01T04:06:59.161Z,2.78
2022-12-01T04:10:18.427Z,2.85
2022-12-01T04:13:53.348Z,2.62
2022-12-01T04:17:30.310Z,3.47
2022-12-01T04:20:58.417Z,3.60
2022-12-01T04:24:20.130Z,3.72
2022-12-01T04:27:39.026Z,2.90
2022-12-01T04:31:06.912Z,2.80
2022-12-01T04:34:25.347Z,2.40
2022-12-01T04:37:42.818Z,2.87
2022-12-01T04:41:06.862Z,2.10
2022-12-01T04:44:36.070Z,2.42
2022-12-01T04:48:05.446Z,2.05
2022-12-01T04:51:25.907Z,3.42
2022-12-01T04:55:01.280Z,2.63
2022-12-01T04:58:19.111Z,2.90
2022-12-01T05:01:48.453Z,2.67
2022-12-01T05:05:23.427Z,2.03
2022-12-01T05:08:46.678Z,1.98
2022-12-01T05:12:03.793Z,3.08
2022-12-01T05:15:32.079Z,2.83
2022-12-01T05:19:16.636Z,3.05
2022-12-01T05:23:03.813Z,3.37
2022-12-01T05:26:09.031Z,3.40
2022-12-01T05:29:57.919Z,2.58
2022-12-01T05:33:24.181Z,3.42
2022-12-01T05:36:53.119Z,2.80
2022-12-01T05:40:09.811Z,3.17
2022-12-01T05:43:39.852Z,3.55
2022-12-01T05:47:16.431Z,2.95
2022-12-01T05:50:34.125Z,3.22
2022-12-01T05:53:52.909Z,3.65
2022-12-01T05:57:20.808Z,3.53
2022-12-01T06:00:45.582Z,2.05
2022-12-01T06:04:00.055Z,3.95
2022-12-01T06:07:26.127Z,3.25
2022-12-01T06:10:46.112Z,3.00
2022-12-01T06:14:14.096Z,2.85
2022-12-01T06:17:39.784Z,2.87
2022-12-01T06:21:07.440Z,4.00
2022-12-01T06:24:35.735Z,2.08
2022-12-01T06:28:07.285Z,3.45
2022-12-01T06:31:25.208Z,3.28
2022-12-01T06:34:54.311Z,4.50
2022-12-01T06:38:12.421Z,3.00
2022-12-01T06:41:46.843Z,2.50
2022-12-01T06:46:00.889Z,2.60
2022-12-01T06:49:29.177Z,1.98
2022-12-01T06:53:06.586Z,2.37
2022-12-01T06:56:45.047Z,4.37
2022-12-01T07:00:32.289Z,2.72
2022-12-01T07:04:00.881Z,3.97
2022-12-01T07:07:40.949Z,2.67
2022-12-01T07:11:16.119Z,4.53
2022-12-01T07:14:59.091Z,5.95
2022-12-01T07:18:41.724Z,4.82
2022-12-01T07:22:18.545Z,3.67
2022-12-01T07:26:02.086Z,3.53
2022-12-01T07:33:33.361Z,4.07
2022-12-01T07:37:21.270Z,4.53
2022-12-01T07:40:31.118Z,4.40
2022-12-01T07:44:07.392Z,3.62
2022-12-01T07:47:44.199Z,4.12
2022-12-01T07:51:11.925Z,5.15
2022-12-01T07:54:33.207Z,4.53
2022-12-01T07:58:20.114Z,4.10
2022-12-01T08:01:46.419Z,4.95
2022-12-01T08:05:18.727Z,4.40
2022-12-01T08:08:53.327Z,4.43
2022-12-01T08:12:28.762Z,5.28
2022-12-01T08:16:10.815Z,5.62
2022-12-01T08:19:44.799Z,5.05
2022-12-01T08:23:18.252Z,5.18
2022-12-01T08:26:28.159Z,5.03
2022-12-01T08:29:34.272Z,5.93
2022-12-01T08:33:14.821Z,5.30
2022-12-01T08:36:39.476Z,6.30
2022-12-01T08:40:15.332Z,5.80
2022-12-01T08:44:17.517Z,4.77
2022-12-01T08:47:41.725Z,4.68
2022-12-01T08:51:20.676Z,5.55
2022-12-01T08:54:23.529Z,5.80
2022-12-01T08:57:42.088Z,5.50
2022-12-01T09:01:10.882Z,4.97
2022-12-01T09:04:52.703Z,4.95
2022-12-01T09:08:33.887Z,4.90
2022-12-01T09:12:10.736Z,4.80
2022-12-01T09:15:58.651Z,5.53
2022-12-01T09:19:34.409Z,5.85
2022-12-01T09:22:52.578Z,4.68
2022-12-01T09:26:50.240Z,4.95
2022-12-01T09:30:09.917Z,5.57
2022-12-01T09:33:42.322Z,4.72
2022-12-01T09:37:02.454Z,4.40
2022-12-01T09:45:02.327Z,4.32
2022-12-01T09:48:46.779Z,5.05
2022-12-01T09:52:22.952Z,6.12
2022-12-01T09:56:03.098Z,5.12
2022-12-01T09:59:22.967Z,5.87
2022-12-01T10:03:17.529Z,5.12
2022-12-01T10:07:18.898Z,5.28
2022-12-01T10:10:44.910Z,5.45
2022-12-01T10:14:22.950Z,4.75
2022-12-01T10:17:54.120Z,5.20
2022-12-01T10:22:03.340Z,5.05
2022-12-01T10:25:55.550Z,4.80
2022-12-01T10:29:49.581Z,5.18
2022-12-01T10:33:22.990Z,5.30
2022-12-01T10:37:01.035Z,4.43
2022-12-01T10:44:01.589Z,4.22
2022-12-01T10:47:45.450Z,4.07
2022-12-01T10:51:57.356Z,3.72
2022-12-01T10:55:32.150Z,4.03
2022-12-01T10:59:05.444Z,5.32
2022-12-01T11:02:44.958Z,3.85
2022-12-01T11:06:08.153Z,3.78
2022-12-01T11:09:31.180Z,5.12
2022-12-01T11:13:19.615Z,5.12
2022-12-01T11:16:55.897Z,4.45
2022-12-01T11:20:38.567Z,4.20
2022-12-01T11:24:44.815Z,5.03
2022-12-01T11:28:21.489Z,3.97
2022-12-01T11:31:54.111Z,4.10
2022-12-01T11:35:37.982Z,4.15
2022-12-01T11:38:43.683Z,4.53
2022-12-01T11:41:50.117Z,3.28
2022-12-01T11:45:39.461Z,2.83
2022-12-01T11:49:23.473Z,2.53
2022-12-01T11:52:45.151Z,3.00
2022-12-01T11:55:52.687Z,2.62
2022-12-01T11:59:49.803Z,1.90
2022-12-01T12:03:23.972Z,2.92
2022-12-01T12:07:01.322Z,2.40
2022-12-01T12:10:49.758Z,2.53
2022-12-01T12:14:51.711Z,2.33
2022-12-01T12:18:40.829Z,2.45
2022-12-01T12:23:01.928Z,2.47
2022-12-01T12:31:17.642Z,1.95
2022-12-01T12:35:32.141Z,2.33
2022-12-01T12:39:31.006Z,3.20
2022-12-01T12:43:25.755Z,2.28
2022-12-01T12:48:10.688Z,2.45
2022-12-01T12:50:58.034Z,2.40
2022-12-01T12:54:47.042Z,2.28
2022-12-01T12:58:31.959Z,2.42
2022-12-01T13:03:42.829Z,3.80
2022-12-01T13:06:24.213Z,3.03
2022-12-01T13:10:45.976Z,2.45
2022-12-01T13:15:03.796Z,2.83
2022-12-01T13:20:04.269Z,1.87
2022-12-01T13:23:50.979Z,3.30
2022-12-01T13:27:34.637Z,3.03
2022-12-01T13:31:31.889Z,2.95
2022-12-01T13:39:48.661Z,3.25
2022-12-01T13:43:27.977Z,2.83
2022-12-01T13:47:32.794Z,3.25
2022-12-01T13:51:04.029Z,3.30
2022-12-01T13:54:30.657Z,3.33
2022-12-01T13:58:29.359Z,3.33
2022-12-01T14:05:54.086Z,3.58
2022-12-01T14:09:28.847Z,3.58
2022-12-01T14:13:18.551Z,3.15
2022-12-01T14:16:55.492Z,4.37
2022-12-01T14:20:46.206Z,4.32
2022-12-01T14:24:08.531Z,4.35
2022-12-01T14:27:45.509Z,4.00
2022-12-01T14:31:49.165Z,3.80
2022-12-01T14:35:20.920Z,2.80
2022-12-01T14:39:49.634Z,3.65
2022-12-01T14:43:36.179Z,3.45
2022-12-01T14:47:51.117Z,3.65
2022-12-01T14:51:32.406Z,4.93
2022-12-01T14:54:51.513Z,4.55
2022-12-01T14:58:59.799Z,4.15
2022-12-01T15:02:25.599Z,3.58
2022-12-01T15:06:12.753Z,3.67
2022-12-01T15:13:48.803Z,4.30
2022-12-01T15:17:36.459Z,4.75
2022-12-01T15:21:31.555Z,3.50
2022-12-01T15:25:15.363Z,4.07
2022-12-01T15:28:48.963Z,3.85
2022-12-01T15:32:27.737Z,2.70
2022-12-01T15:35:56.045Z,5.37
2022-12-01T15:39:36.055Z,3.10
2022-12-01T15:43:10.533Z,4.65
2022-12-01T15:46:32.849Z,3.72
2022-12-01T15:49:57.745Z,3.70
2022-12-01T15:53:36.341Z,4.82
2022-12-01T15:57:05.428Z,4.45
2022-12-01T16:00:40.444Z,4.40
2022-12-01T16:04:22.364Z,5.03
2022-12-01T16:08:15.664Z,4.85
2022-12-01T16:11:25.771Z,4.45
2022-12-01T16:15:12.303Z,5.35
2022-12-01T16:19:03.251Z,5.60
2022-12-01T16:26:16.832Z,5.50
2022-12-01T16:30:03.117Z,5.53
2022-12-01T16:33:31.169Z,6.12
2022-12-01T16:37:12.175Z,5.60
2022-12-01T16:40:34.693Z,5.68
2022-12-01T16:44:27.017Z,5.32
2022-12-01T16:47:33.379Z,5.43
2022-12-01T16:51:29.479Z,4.87
2022-12-01T16:54:52.085Z,5.93
2022-12-01T16:58:28.603Z,6.40
2022-12-01T17:01:34.685Z,5.30
2022-12-01T17:04:38.334Z,5.95
2022-12-01T17:08:08.871Z,5.47
2022-12-01T17:11:45.438Z,5.90
2022-12-01T17:15:18.493Z,5.80
2022-12-01T17:18:48.248Z,6.20
2022-12-01T17:22:10.021Z,5.68
2022-12-01T17:25:46.617Z,5.80
2022-12-01T17:29:32.483Z,5.75
2022-12-01T17:36:35.789Z,5.95
2022-12-01T17:41:01.296Z,6.78
2022-12-01T17:44:57.151Z,6.43
2022-12-01T17:56:29.478Z,6.45
2022-12-01T18:22:31.168Z,7.80
2022-12-01T18:26:21.872Z,7.43
2022-12-01T19:00:09.134Z,8.13
2022-12-01T19:03:52.557Z,7.35
2022-12-01T19:07:32.779Z,8.27
2022-12-01T19:15:02.147Z,6.35
2022-12-01T19:18:49.562Z,9.13
2022-12-01T19:22:12.819Z,8.45
2022-12-01T19:30:05.643Z,7.40
2022-12-01T19:33:48.506Z,9.25
2022-12-01T20:40:58.469Z,6.93
2022-12-01T20:44:36.641Z,9.48
2022-12-01T20:59:51.401Z,6.55
2022-12-01T21:03:51.683Z,8.00
2022-12-01T21:07:32.733Z,6.90
2022-12-01T21:15:07.388Z,6.50
2022-12-01T21:19:32.218Z,6.90
2022-12-01T21:34:21.080Z,6.00
2022-12-01T21:57:54.763Z,5.70
2022-12-01T22:10:08.916Z,6.97
2022-12-01T22:14:07.362Z,6.68
2022-12-01T22:17:44.374Z,6.80
2022-12-01T22:21:31.519Z,6.70
2022-12-01T22:41:58.137Z,6.15
2022-12-01T22:45:34.221Z,5.47
2022-12-01T22:57:08.042Z,4.53
2022-12-01T23:05:34.507Z,5.03
2022-12-01T23:49:37.161Z,4.12
2022-12-01T23:57:48.134Z,4.72
